sensor_id;sensor_type;location;lat;lon;timestamp;noise_LAeq;noise_LA_min;noise_LA_max;noise_LA01;noise_LA95
64545;Laerm;50936;51.660;5.616;2023-03-14T00:01:23;59.78;41.38;81.49;;
64545;Laerm;50936;51.660;5.616;2023-03-14T00:03:50;61.38;41.06;82.39;;
64545;Laerm;50936;51.660;5.616;2023-03-14T00:06:18;58.69;39.81;80.82;;
64545;Laerm;50936;51.660;5.616;2023-03-14T00:08:46;59.25;41.61;78.49;;
64545;Laerm;50936;51.660;5.616;2023-03-14T00:11:18;60.95;39.92;83.69;;
64545;Laerm;50936;51.660;5.616;2023-03-14T00:13:50;66.63;40.71;85.05;;
64545;Laerm;50936;51.660;5.616;2023-03-14T00:16:18;64.19;40.03;82.23;;
64545;Laerm;50936;51.660;5.616;2023-03-14T00:18:45;64.45;41.46;87.11;;
64545;Laerm;50936;51.660;5.616;2023-03-14T00:21:13;66.36;39.46;90.67;;
64545;Laerm;50936;51.660;5.616;2023-03-14T00:23:42;64.57;40.03;90.24;;
64545;Laerm;50936;51.660;5.616;2023-03-14T00:26:16;69.78;40.23;93.76;;
64545;Laerm;50936;51.660;5.616;2023-03-14T00:28:44;68.78;41.53;93.98;;
64545;Laerm;50936;51.660;5.616;2023-03-14T00:31:15;66.82;41.53;87.99;;
64545;Laerm;50936;51.660;5.616;2023-03-14T00:33:44;69.86;40.98;95.65;;
64545;Laerm;50936;51.660;5.616;2023-03-14T00:36:17;61.97;40.03;81.44;;
64545;Laerm;50936;51.660;5.616;2023-03-14T00:38:47;58.15;39.92;80.64;;
64545;Laerm;50936;51.660;5.616;2023-03-14T00:41:19;66.39;40.27;90.09;;
64545;Laerm;50936;51.660;5.616;2023-03-14T00:43:46;65.86;41.96;83.93;;
64545;Laerm;50936;51.660;5.616;2023-03-14T00:46:14;73.16;40.89;96.04;;
64545;Laerm;50936;51.660;5.616;2023-03-14T00:48:45;66.36;41.75;92.10;;
64545;Laerm;50936;51.660;5.616;2023-03-14T00:51:13;72.69;40.43;96.83;;
64545;Laerm;50936;51.660;5.616;2023-03-14T00:53:43;69.25;41.06;93.86;;
64545;Laerm;50936;51.660;5.616;2023-03-14T00:56:12;67.18;41.68;88.87;;
64545;Laerm;50936;51.660;5.616;2023-03-14T00:58:40;69.76;43.04;91.66;;
64545;Laerm;50936;51.660;5.616;2023-03-14T01:01:10;66.59;41.46;87.66;;
64545;Laerm;50936;51.660;5.616;2023-03-14T01:03:38;68.78;41.75;93.88;;
64545;Laerm;50936;51.660;5.616;2023-03-14T01:06:13;57.71;40.13;80.25;;
64545;Laerm;50936;51.660;5.616;2023-03-14T01:08:42;64.56;40.53;85.24;;
64545;Laerm;50936;51.660;5.616;2023-03-14T01:11:17;67.12;39.81;93.50;;
64545;Laerm;50936;51.660;5.616;2023-03-14T01:13:44;64.59;40.71;87.26;;
64545;Laerm;50936;51.660;5.616;2023-03-14T01:16:14;70.38;39.34;92.79;;
64545;Laerm;50936;51.660;5.616;2023-03-14T01:18:43;69.11;40.80;93.11;;
64545;Laerm;50936;51.660;5.616;2023-03-14T01:21:25;61.72;40.23;84.99;;
64545;Laerm;50936;51.660;5.616;2023-03-14T01:23:54;61.96;40.13;85.10;;
64545;Laerm;50936;51.660;5.616;2023-03-14T01:26:24;72.40;39.21;95.93;;
64545;Laerm;50936;51.660;5.616;2023-03-14T01:28:54;68.43;40.98;90.77;;
64545;Laerm;50936;51.660;5.616;2023-03-14T01:31:24;67.28;40.98;92.07;;
64545;Laerm;50936;51.660;5.616;2023-03-14T01:33:51;56.62;37.12;77.09;;
64545;Laerm;50936;51.660;5.616;2023-03-14T01:36:19;58.48;40.23;82.04;;
64545;Laerm;50936;51.660;5.616;2023-03-14T01:38:46;56.45;40.03;85.54;;
64545;Laerm;50936;51.660;5.616;2023-03-14T01:41:23;76.44;39.58;96.82;;
64545;Laerm;50936;51.660;5.616;2023-03-14T01:43:52;68.88;40.23;98.24;;
64545;Laerm;50936;51.660;5.616;2023-03-14T01:46:30;63.26;40.43;83.36;;
64545;Laerm;50936;51.660;5.616;2023-03-14T01:51:59;60.63;39.81;85.45;;
64545;Laerm;50936;51.660;5.616;2023-03-14T01:54:35;66.99;41.38;91.01;;
64545;Laerm;50936;51.660;5.616;2023-03-14T01:57:23;72.69;41.22;98.28;;
64545;Laerm;50936;51.660;5.616;2023-03-14T02:00:00;64.18;39.57;86.70;;
64545;Laerm;50936;51.660;5.616;2023-03-14T02:02:46;61.13;39.92;83.06;;
64545;Laerm;50936;51.660;5.616;2023-03-14T02:05:32;62.23;40.03;84.19;;
64545;Laerm;50936;51.660;5.616;2023-03-14T02:08:19;69.35;42.09;91.47;;
64545;Laerm;50936;51.660;5.616;2023-03-14T02:10:51;65.44;41.68;85.50;;
64545;Laerm;50936;51.660;5.616;2023-03-14T02:13:38;64.48;40.43;85.95;;
64545;Laerm;50936;51.660;5.616;2023-03-14T02:16:24;68.85;40.53;89.08;;
64545;Laerm;50936;51.660;5.616;2023-03-14T02:19:50;63.09;39.92;91.20;;
64545;Laerm;50936;51.660;5.616;2023-03-14T02:22:40;71.86;40.53;95.11;;
64545;Laerm;50936;51.660;5.616;2023-03-14T02:27:59;64.63;40.43;84.94;;
64545;Laerm;50936;51.660;5.616;2023-03-14T02:30:30;66.03;40.23;89.55;;
64545;Laerm;50936;51.660;5.616;2023-03-14T02:33:04;58.16;38.21;77.41;;
64545;Laerm;50936;51.660;5.616;2023-03-14T02:35:43;56.03;39.34;76.09;;
64545;Laerm;50936;51.660;5.616;2023-03-14T02:38:24;53.27;39.92;72.92;;
64545;Laerm;50936;51.660;5.616;2023-03-14T02:40:55;59.88;40.62;78.90;;
64545;Laerm;50936;51.660;5.616;2023-03-14T02:43:22;57.66;40.33;80.37;;
64545;Laerm;50936;51.660;5.616;2023-03-14T02:45:56;69.34;41.96;93.07;;
64545;Laerm;50936;51.660;5.616;2023-03-14T02:48:53;58.19;40.33;78.45;;
64545;Laerm;50936;51.660;5.616;2023-03-14T02:51:24;57.62;40.23;77.91;;
64545;Laerm;50936;51.660;5.616;2023-03-14T02:53:52;64.66;38.37;87.64;;
64545;Laerm;50936;51.660;5.616;2023-03-14T02:56:21;56.17;39.81;81.87;;
64545;Laerm;50936;51.660;5.616;2023-03-14T02:58:48;61.76;39.81;87.29;;
64545;Laerm;50936;51.660;5.616;2023-03-14T03:01:45;63.51;39.34;86.08;;
64545;Laerm;50936;51.660;5.616;2023-03-14T03:04:12;57.85;39.46;78.37;;
64545;Laerm;50936;51.660;5.616;2023-03-14T03:06:39;58.50;39.92;80.69;;
64545;Laerm;50936;51.660;5.616;2023-03-14T03:09:06;64.99;40.03;86.94;;
64545;Laerm;50936;51.660;5.616;2023-03-14T03:11:33;57.68;39.81;78.86;;
64545;Laerm;50936;51.660;5.616;2023-03-14T03:14:00;62.92;40.13;86.45;;
64545;Laerm;50936;51.660;5.616;2023-03-14T03:16:28;65.68;40.27;87.76;;
64545;Laerm;50936;51.660;5.616;2023-03-14T03:18:55;61.68;40.13;88.43;;
64545;Laerm;50936;51.660;5.616;2023-03-14T03:21:22;60.02;40.03;84.55;;
64545;Laerm;50936;51.660;5.616;2023-03-14T03:23:51;62.14;40.80;81.27;;
64545;Laerm;50936;51.660;5.616;2023-03-14T03:26:18;59.79;41.14;78.65;;
64545;Laerm;50936;51.660;5.616;2023-03-14T03:28:44;62.14;40.03;84.87;;
64545;Laerm;50936;51.660;5.616;2023-03-14T03:31:14;60.21;39.92;83.22;;
64545;Laerm;50936;51.660;5.616;2023-03-14T03:33:41;61.52;40.23;82.22;;
64545;Laerm;50936;51.660;5.616;2023-03-14T03:36:09;55.78;39.70;75.68;;
64545;Laerm;50936;51.660;5.616;2023-03-14T03:38:38;56.91;40.89;77.22;;
64545;Laerm;50936;51.660;5.616;2023-03-14T03:41:06;57.46;41.53;75.48;;
64545;Laerm;50936;51.660;5.616;2023-03-14T03:43:36;57.66;40.13;83.22;;
64545;Laerm;50936;51.660;5.616;2023-03-14T03:46:06;62.90;41.06;85.14;;
64545;Laerm;50936;51.660;5.616;2023-03-14T03:48:34;64.96;40.62;89.56;;
64545;Laerm;50936;51.660;5.616;2023-03-14T03:51:04;66.63;40.43;88.59;;
64545;Laerm;50936;51.660;5.616;2023-03-14T03:53:32;59.31;40.62;77.11;;
64545;Laerm;50936;51.660;5.616;2023-03-14T03:56:08;54.92;39.99;75.86;;
64545;Laerm;50936;51.660;5.616;2023-03-14T03:58:36;57.91;41.96;78.44;;
64545;Laerm;50936;51.660;5.616;2023-03-14T04:01:06;58.94;40.98;80.93;;
64545;Laerm;50936;51.660;5.616;2023-03-14T04:03:35;60.45;41.38;80.97;;
64545;Laerm;50936;51.660;5.616;2023-03-14T04:06:08;55.26;41.30;76.27;;
64545;Laerm;50936;51.660;5.616;2023-03-14T04:08:38;53.64;40.98;74.62;;
64545;Laerm;50936;51.660;5.616;2023-03-14T04:11:07;47.28;39.81;68.40;;
64545;Laerm;50936;51.660;5.616;2023-03-14T04:13:52;61.24;41.22;81.21;;
64545;Laerm;50936;51.660;5.616;2023-03-14T04:16:23;58.68;41.75;76.72;;
64545;Laerm;50936;51.660;5.616;2023-03-14T04:18:57;56.24;41.14;75.75;;
64545;Laerm;50936;51.660;5.616;2023-03-14T04:21:25;56.07;41.14;75.42;;
64545;Laerm;50936;51.660;5.616;2023-03-14T04:23:55;67.92;41.61;84.29;;
64545;Laerm;50936;51.660;5.616;2023-03-14T04:26:25;63.95;42.29;86.35;;
64545;Laerm;50936;51.660;5.616;2023-03-14T04:28:52;67.19;42.29;84.44;;
64545;Laerm;50936;51.660;5.616;2023-03-14T04:31:22;68.23;41.89;91.88;;
64545;Laerm;50936;51.660;5.616;2023-03-14T04:33:51;61.68;42.59;80.86;;
64545;Laerm;50936;51.660;5.616;2023-03-14T04:36:25;67.06;43.44;91.64;;
64545;Laerm;50936;51.660;5.616;2023-03-14T04:38:52;54.71;42.09;73.95;;
64545;Laerm;50936;51.660;5.616;2023-03-14T04:41:21;57.29;41.48;76.70;;
64545;Laerm;50936;51.660;5.616;2023-03-14T04:43:51;53.99;42.16;71.31;;
64545;Laerm;50936;51.660;5.616;2023-03-14T04:46:18;58.62;41.46;81.21;;
64545;Laerm;50936;51.660;5.616;2023-03-14T04:48:45;59.84;44.31;78.13;;
64545;Laerm;50936;51.660;5.616;2023-03-14T04:51:13;57.64;43.04;80.45;;
64545;Laerm;50936;51.660;5.616;2023-03-14T04:53:40;60.98;43.19;83.06;;
64545;Laerm;50936;51.660;5.616;2023-03-14T04:56:10;64.15;42.29;87.42;;
64545;Laerm;50936;51.660;5.616;2023-03-14T04:58:42;68.63;44.03;94.64;;
64545;Laerm;50936;51.660;5.616;2023-03-14T05:01:09;60.82;44.27;81.28;;
64545;Laerm;50936;51.660;5.616;2023-03-14T05:04:06;61.77;44.47;80.28;;
64545;Laerm;50936;51.660;5.616;2023-03-14T05:06:56;64.06;43.54;83.95;;
64545;Laerm;50936;51.660;5.616;2023-03-14T05:09:35;65.57;43.44;86.74;;
64545;Laerm;50936;51.660;5.616;2023-03-14T05:12:19;60.16;44.58;85.21;;
64545;Laerm;50936;51.660;5.616;2023-03-14T05:15:03;66.67;43.68;90.84;;
64545;Laerm;50936;51.660;5.616;2023-03-14T05:17:54;65.37;44.73;84.48;;
64545;Laerm;50936;51.660;5.616;2023-03-14T05:20:39;63.19;44.65;86.28;;
64545;Laerm;50936;51.660;5.616;2023-03-14T05:23:41;60.73;45.23;76.86;;
64545;Laerm;50936;51.660;5.616;2023-03-14T05:26:29;61.00;45.14;74.76;;
64545;Laerm;50936;51.660;5.616;2023-03-14T05:29:18;59.79;44.90;77.21;;
64545;Laerm;50936;51.660;5.616;2023-03-14T05:32:18;66.48;45.69;87.53;;
64545;Laerm;50936;51.660;5.616;2023-03-14T05:34:57;70.66;44.94;93.71;;
64545;Laerm;50936;51.660;5.616;2023-03-14T05:37:49;62.46;45.42;83.53;;
64545;Laerm;50936;51.660;5.616;2023-03-14T05:40:28;59.71;45.89;79.00;;
64545;Laerm;50936;51.660;5.616;2023-03-14T05:43:27;63.31;45.86;82.18;;
64545;Laerm;50936;51.660;5.616;2023-03-14T05:46:09;59.49;47.63;73.39;;
64545;Laerm;50936;51.660;5.616;2023-03-14T05:49:02;63.45;47.91;84.83;;
64545;Laerm;50936;51.660;5.616;2023-03-14T05:51:40;65.77;49.29;83.42;;
64545;Laerm;50936;51.660;5.616;2023-03-14T05:54:44;69.03;46.55;89.59;;
64545;Laerm;50936;51.660;5.616;2023-03-14T05:57:31;62.37;47.70;79.24;;
64545;Laerm;50936;51.660;5.616;2023-03-14T06:00:17;61.37;47.32;72.24;;
64545;Laerm;50936;51.660;5.616;2023-03-14T06:02:55;66.43;46.20;91.32;;
64545;Laerm;50936;51.660;5.616;2023-03-14T06:05:28;63.74;48.20;81.86;;
64545;Laerm;50936;51.660;5.616;2023-03-14T06:07:59;63.89;48.76;83.33;;
64545;Laerm;50936;51.660;5.616;2023-03-14T06:10:30;62.11;45.04;84.09;;
64545;Laerm;50936;51.660;5.616;2023-03-14T06:12:57;63.05;47.98;81.26;;
64545;Laerm;50936;51.660;5.616;2023-03-14T06:15:24;63.35;48.60;79.04;;
64545;Laerm;50936;51.660;5.616;2023-03-14T06:17:55;63.70;50.05;75.24;;
64545;Laerm;50936;51.660;5.616;2023-03-14T06:20:23;62.69;50.65;78.62;;
64545;Laerm;50936;51.660;5.616;2023-03-14T06:22:50;63.31;50.76;77.09;;
64545;Laerm;50936;51.660;5.616;2023-03-14T06:25:17;61.02;46.73;70.05;;
64545;Laerm;50936;51.660;5.616;2023-03-14T06:27:46;62.53;49.03;75.99;;
64545;Laerm;50936;51.660;5.616;2023-03-14T06:30:15;65.77;49.66;82.52;;
64545;Laerm;50936;51.660;5.616;2023-03-14T06:32:42;62.97;46.94;79.37;;
64545;Laerm;50936;51.660;5.616;2023-03-14T06:35:12;63.69;52.11;72.31;;
64545;Laerm;50936;51.660;5.616;2023-03-14T06:37:42;63.71;48.80;78.29;;
64545;Laerm;50936;51.660;5.616;2023-03-14T06:40:11;64.31;50.78;83.27;;
64545;Laerm;50936;51.660;5.616;2023-03-14T06:43:06;64.50;50.91;84.48;;
64545;Laerm;50936;51.660;5.616;2023-03-14T06:45:35;61.46;50.72;71.72;;
64545;Laerm;50936;51.660;5.616;2023-03-14T06:48:03;69.09;53.40;86.62;;
64545;Laerm;50936;51.660;5.616;2023-03-14T06:50:37;64.26;54.78;79.41;;
64545;Laerm;50936;51.660;5.616;2023-03-14T06:53:04;65.88;53.74;82.28;;
64545;Laerm;50936;51.660;5.616;2023-03-14T06:55:33;66.43;55.20;78.00;;
64545;Laerm;50936;51.660;5.616;2023-03-14T06:58:00;64.21;51.03;81.38;;
64545;Laerm;50936;51.660;5.616;2023-03-14T07:00:28;64.53;50.32;82.28;;
64545;Laerm;50936;51.660;5.616;2023-03-14T07:02:56;67.42;50.86;82.71;;
64545;Laerm;50936;51.660;5.616;2023-03-14T07:05:33;64.49;52.13;82.60;;
64545;Laerm;50936;51.660;5.616;2023-03-14T07:08:00;66.44;54.22;81.20;;
64545;Laerm;50936;51.660;5.616;2023-03-14T07:10:27;67.21;54.77;83.12;;
64545;Laerm;50936;51.660;5.616;2023-03-14T07:12:54;64.11;51.50;78.31;;
64545;Laerm;50936;51.660;5.616;2023-03-14T07:15:25;68.21;54.93;81.86;;
64545;Laerm;50936;51.660;5.616;2023-03-14T07:17:56;67.24;58.21;83.40;;
64545;Laerm;50936;51.660;5.616;2023-03-14T07:20:24;68.45;59.63;78.47;;
64545;Laerm;50936;51.660;5.616;2023-03-14T07:22:51;69.43;57.76;84.30;;
64545;Laerm;50936;51.660;5.616;2023-03-14T07:25:28;72.20;61.65;90.23;;
64545;Laerm;50936;51.660;5.616;2023-03-14T07:27:56;72.60;65.15;78.85;;
64545;Laerm;50936;51.660;5.616;2023-03-14T07:30:23;75.79;65.35;90.78;;
64545;Laerm;50936;51.660;5.616;2023-03-14T07:32:50;75.70;66.45;90.14;;
64545;Laerm;50936;51.660;5.616;2023-03-14T07:35:22;76.12;60.57;97.16;;
64545;Laerm;50936;51.660;5.616;2023-03-14T07:37:49;72.52;62.21;82.48;;
64545;Laerm;50936;51.660;5.616;2023-03-14T07:40:20;72.30;58.89;82.80;;
64545;Laerm;50936;51.660;5.616;2023-03-14T07:42:47;72.53;60.24;82.52;;
64545;Laerm;50936;51.660;5.616;2023-03-14T07:45:23;71.76;60.06;81.37;;
64545;Laerm;50936;51.660;5.616;2023-03-14T07:47:50;72.73;64.83;81.26;;
64545;Laerm;50936;51.660;5.616;2023-03-14T07:50:17;72.58;62.92;84.36;;
64545;Laerm;50936;51.660;5.616;2023-03-14T07:52:45;71.84;64.07;81.89;;
64545;Laerm;50936;51.660;5.616;2023-03-14T07:55:12;71.62;62.57;82.12;;
64545;Laerm;50936;51.660;5.616;2023-03-14T07:57:40;71.70;61.69;87.73;;
64545;Laerm;50936;51.660;5.616;2023-03-14T08:00:08;69.49;60.18;80.42;;
64545;Laerm;50936;51.660;5.616;2023-03-14T08:02:38;71.80;61.40;81.58;;
64545;Laerm;50936;51.660;5.616;2023-03-14T08:05:06;71.36;57.62;81.59;;
64545;Laerm;50936;51.660;5.616;2023-03-14T08:07:33;71.37;58.36;80.92;;
64545;Laerm;50936;51.660;5.616;2023-03-14T08:10:00;69.01;54.75;79.16;;
64545;Laerm;50936;51.660;5.616;2023-03-14T08:12:27;72.59;57.92;90.92;;
64545;Laerm;50936;51.660;5.616;2023-03-14T08:14:54;70.11;58.62;81.78;;
64545;Laerm;50936;51.660;5.616;2023-03-14T08:17:21;69.36;56.86;81.20;;
64545;Laerm;50936;51.660;5.616;2023-03-14T08:19:48;67.74;58.45;82.50;;
64545;Laerm;50936;51.660;5.616;2023-03-14T08:22:14;67.89;55.34;79.48;;
64545;Laerm;50936;51.660;5.616;2023-03-14T08:24:45;69.77;58.46;79.73;;
64545;Laerm;50936;51.660;5.616;2023-03-14T08:27:12;68.64;55.90;81.72;;
64545;Laerm;50936;51.660;5.616;2023-03-14T08:29:41;68.35;56.83;79.69;;
64545;Laerm;50936;51.660;5.616;2023-03-14T08:32:08;69.67;61.29;80.86;;
64545;Laerm;50936;51.660;5.616;2023-03-14T08:34:36;70.95;56.77;88.82;;
64545;Laerm;50936;51.660;5.616;2023-03-14T08:37:05;67.71;52.64;85.20;;
64545;Laerm;50936;51.660;5.616;2023-03-14T08:39:49;67.77;56.53;83.03;;
64545;Laerm;50936;51.660;5.616;2023-03-14T08:42:16;67.92;55.91;79.28;;
64545;Laerm;50936;51.660;5.616;2023-03-14T08:44:43;69.26;58.59;85.54;;
64545;Laerm;50936;51.660;5.616;2023-03-14T08:47:11;67.58;54.74;81.64;;
64545;Laerm;50936;51.660;5.616;2023-03-14T08:49:37;68.14;56.55;82.81;;
64545;Laerm;50936;51.660;5.616;2023-03-14T08:52:05;67.47;54.04;85.96;;
64545;Laerm;50936;51.660;5.616;2023-03-14T08:54:32;69.85;58.15;81.55;;
64545;Laerm;50936;51.660;5.616;2023-03-14T08:56:58;66.79;51.17;81.43;;
64545;Laerm;50936;51.660;5.616;2023-03-14T08:59:25;68.38;53.32;83.30;;
64545;Laerm;50936;51.660;5.616;2023-03-14T09:01:52;66.26;55.00;81.66;;
64545;Laerm;50936;51.660;5.616;2023-03-14T09:04:21;68.02;56.05;84.15;;
64545;Laerm;50936;51.660;5.616;2023-03-14T09:06:48;65.35;51.53;77.98;;
64545;Laerm;50936;51.660;5.616;2023-03-14T09:09:15;68.36;54.41;87.15;;
64545;Laerm;50936;51.660;5.616;2023-03-14T09:11:42;67.25;57.23;87.09;;
64545;Laerm;50936;51.660;5.616;2023-03-14T09:14:09;65.44;55.48;75.04;;
64545;Laerm;50936;51.660;5.616;2023-03-14T09:16:35;65.52;53.97;77.74;;
64545;Laerm;50936;51.660;5.616;2023-03-14T09:19:03;64.90;55.65;77.33;;
64545;Laerm;50936;51.660;5.616;2023-03-14T09:21:29;67.58;54.32;87.17;;
64545;Laerm;50936;51.660;5.616;2023-03-14T09:23:56;69.04;54.89;87.91;;
64545;Laerm;50936;51.660;5.616;2023-03-14T09:26:23;69.77;57.77;83.49;;
64545;Laerm;50936;51.660;5.616;2023-03-14T09:28:50;69.66;58.77;94.36;;
64545;Laerm;50936;51.660;5.616;2023-03-14T09:31:17;71.23;63.45;79.96;;
64545;Laerm;50936;51.660;5.616;2023-03-14T09:33:44;68.01;53.89;76.90;;
64545;Laerm;50936;51.660;5.616;2023-03-14T09:36:12;66.92;56.01;82.31;;
64545;Laerm;50936;51.660;5.616;2023-03-14T09:38:39;68.35;59.75;88.21;;
64545;Laerm;50936;51.660;5.616;2023-03-14T09:41:33;68.70;53.62;80.72;;
64545;Laerm;50936;51.660;5.616;2023-03-14T09:46:38;68.10;57.49;77.59;;
64545;Laerm;50936;51.660;5.616;2023-03-14T09:49:20;69.40;57.22;88.23;;
64545;Laerm;50936;51.660;5.616;2023-03-14T09:51:53;67.70;55.54;84.49;;
64545;Laerm;50936;51.660;5.616;2023-03-14T09:54:31;67.39;57.21;83.07;;
64545;Laerm;50936;51.660;5.616;2023-03-14T09:56:59;67.23;56.41;79.33;;
64545;Laerm;50936;51.660;5.616;2023-03-14T09:59:28;66.81;53.56;75.65;;
64545;Laerm;50936;51.660;5.616;2023-03-14T10:02:02;69.19;58.19;84.87;;
64545;Laerm;50936;51.660;5.616;2023-03-14T10:04:40;69.93;55.75;89.76;;
64545;Laerm;50936;51.660;5.616;2023-03-14T10:07:37;67.10;57.09;87.14;;
64545;Laerm;50936;51.660;5.616;2023-03-14T10:10:11;68.40;54.58;91.63;;
64545;Laerm;50936;51.660;5.616;2023-03-14T10:12:39;66.60;51.49;87.39;;
64545;Laerm;50936;51.660;5.616;2023-03-14T10:15:14;70.33;58.68;86.51;;
64545;Laerm;50936;51.660;5.616;2023-03-14T10:17:48;69.51;55.13;90.20;;
64545;Laerm;50936;51.660;5.616;2023-03-14T10:20:39;71.91;54.62;92.02;;
64545;Laerm;50936;51.660;5.616;2023-03-14T10:25:45;68.32;54.30;93.27;;
64545;Laerm;50936;51.660;5.616;2023-03-14T10:28:39;67.77;55.82;88.70;;
64545;Laerm;50936;51.660;5.616;2023-03-14T10:31:06;66.74;55.60;93.10;;
64545;Laerm;50936;51.660;5.616;2023-03-14T10:33:37;65.37;54.43;82.16;;
64545;Laerm;50936;51.660;5.616;2023-03-14T10:36:21;64.96;54.52;84.13;;
64545;Laerm;50936;51.660;5.616;2023-03-14T10:38:50;63.89;51.36;75.83;;
64545;Laerm;50936;51.660;5.616;2023-03-14T10:41:26;62.79;50.66;70.48;;
64545;Laerm;50936;51.660;5.616;2023-03-14T10:43:59;65.66;53.59;79.37;;
64545;Laerm;50936;51.660;5.616;2023-03-14T10:46:31;64.98;53.18;81.61;;
64545;Laerm;50936;51.660;5.616;2023-03-14T10:49:32;65.60;50.59;81.73;;
64545;Laerm;50936;51.660;5.616;2023-03-14T10:54:48;63.03;51.30;71.12;;
64545;Laerm;50936;51.660;5.616;2023-03-14T10:57:15;64.11;52.67;80.45;;
64545;Laerm;50936;51.660;5.616;2023-03-14T10:59:43;63.73;53.84;76.37;;
64545;Laerm;50936;51.660;5.616;2023-03-14T11:05:34;65.94;54.23;81.47;;
64545;Laerm;50936;51.660;5.616;2023-03-14T11:08:17;65.88;55.05;81.96;;
64545;Laerm;50936;51.660;5.616;2023-03-14T11:10:54;63.77;53.00;80.64;;
64545;Laerm;50936;51.660;5.616;2023-03-14T11:13:42;63.64;53.03;73.39;;
64545;Laerm;50936;51.660;5.616;2023-03-14T11:16:36;64.72;50.92;81.54;;
64545;Laerm;50936;51.660;5.616;2023-03-14T11:33:23;66.34;55.37;78.65;;
64545;Laerm;50936;51.660;5.616;2023-03-14T11:36:08;65.00;54.85;75.43;;
64545;Laerm;50936;51.660;5.616;2023-03-14T11:38:48;67.00;56.58;85.56;;
64545;Laerm;50936;51.660;5.616;2023-03-14T11:41:32;65.74;53.17;79.63;;
64545;Laerm;50936;51.660;5.616;2023-03-14T11:44:13;64.92;51.39;79.51;;
64545;Laerm;50936;51.660;5.616;2023-03-14T11:46:56;65.29;54.94;73.08;;
64545;Laerm;50936;51.660;5.616;2023-03-14T11:49:49;68.79;53.07;90.65;;
64545;Laerm;50936;51.660;5.616;2023-03-14T11:57:31;64.68;53.75;82.73;;
64545;Laerm;50936;51.660;5.616;2023-03-14T12:03:02;68.32;53.62;95.85;;
64545;Laerm;50936;51.660;5.616;2023-03-14T12:10:52;66.11;55.85;75.32;;
64545;Laerm;50936;51.660;5.616;2023-03-14T12:13:21;65.49;53.75;74.51;;
64545;Laerm;50936;51.660;5.616;2023-03-14T12:15:57;64.86;54.89;72.68;;
64545;Laerm;50936;51.660;5.616;2023-03-14T12:18:38;66.08;52.54;74.72;;
64545;Laerm;50936;51.660;5.616;2023-03-14T12:21:11;64.75;52.00;74.90;;
64545;Laerm;50936;51.660;5.616;2023-03-14T12:23:48;64.13;53.86;71.45;;
64545;Laerm;50936;51.660;5.616;2023-03-14T12:26:21;65.19;53.07;76.86;;
64545;Laerm;50936;51.660;5.616;2023-03-14T12:40:03;67.09;51.20;86.08;;
64545;Laerm;50936;51.660;5.616;2023-03-14T12:42:54;64.92;52.81;85.03;;
64545;Laerm;50936;51.660;5.616;2023-03-14T12:48:29;63.85;50.25;72.45;;
64545;Laerm;50936;51.660;5.616;2023-03-14T12:51:05;63.82;50.79;80.06;;
64545;Laerm;50936;51.660;5.616;2023-03-14T12:59:40;64.15;55.32;80.09;;
64545;Laerm;50936;51.660;5.616;2023-03-14T13:02:41;66.66;53.14;87.50;;
64545;Laerm;50936;51.660;5.616;2023-03-14T13:05:12;67.39;55.29;85.24;;
64545;Laerm;50936;51.660;5.616;2023-03-14T13:10:25;67.16;56.05;85.92;;
64545;Laerm;50936;51.660;5.616;2023-03-14T13:15:41;64.15;54.58;78.43;;
64545;Laerm;50936;51.660;5.616;2023-03-14T13:18:41;68.41;51.75;84.95;;
64545;Laerm;50936;51.660;5.616;2023-03-14T13:21:20;64.19;51.47;81.11;;
64545;Laerm;50936;51.660;5.616;2023-03-14T13:26:25;64.79;53.75;80.04;;
64545;Laerm;50936;51.660;5.616;2023-03-14T13:28:58;66.81;51.47;86.89;;
64545;Laerm;50936;51.660;5.616;2023-03-14T13:31:26;66.88;56.28;82.43;;
64545;Laerm;50936;51.660;5.616;2023-03-14T13:34:06;64.24;52.49;81.52;;
64545;Laerm;50936;51.660;5.616;2023-03-14T13:36:36;65.04;54.10;78.05;;
64545;Laerm;50936;51.660;5.616;2023-03-14T13:39:10;63.73;52.02;81.56;;
64545;Laerm;50936;51.660;5.616;2023-03-14T13:41:43;65.43;53.25;81.57;;
64545;Laerm;50936;51.660;5.616;2023-03-14T13:44:17;65.24;51.19;81.77;;
64545;Laerm;50936;51.660;5.616;2023-03-14T13:46:49;63.83;53.05;77.29;;
64545;Laerm;50936;51.660;5.616;2023-03-14T13:49:24;65.96;52.75;87.03;;
64545;Laerm;50936;51.660;5.616;2023-03-14T13:51:51;64.05;54.60;81.40;;
64545;Laerm;50936;51.660;5.616;2023-03-14T13:54:21;64.50;53.31;82.80;;
64545;Laerm;50936;51.660;5.616;2023-03-14T13:57:04;65.85;56.55;82.99;;
64545;Laerm;50936;51.660;5.616;2023-03-14T13:59:34;66.04;56.02;84.29;;
64545;Laerm;50936;51.660;5.616;2023-03-14T14:02:13;63.59;53.90;78.70;;
64545;Laerm;50936;51.660;5.616;2023-03-14T14:04:44;65.78;53.29;78.12;;
64545;Laerm;50936;51.660;5.616;2023-03-14T14:07:16;69.99;50.41;87.31;;
64545;Laerm;50936;51.660;5.616;2023-03-14T14:09:50;65.39;54.53;82.88;;
64545;Laerm;50936;51.660;5.616;2023-03-14T14:12:27;65.61;53.83;81.84;;
64545;Laerm;50936;51.660;5.616;2023-03-14T14:15:11;65.22;55.39;75.28;;
64545;Laerm;50936;51.660;5.616;2023-03-14T14:17:54;63.00;50.04;77.99;;
64545;Laerm;50936;51.660;5.616;2023-03-14T14:20:35;64.03;50.46;79.86;;
64545;Laerm;50936;51.660;5.616;2023-03-14T14:23:18;64.42;50.73;79.91;;
64545;Laerm;50936;51.660;5.616;2023-03-14T14:25:52;64.26;55.29;73.58;;
64545;Laerm;50936;51.660;5.616;2023-03-14T14:28:32;65.15;52.77;81.23;;
64545;Laerm;50936;51.660;5.616;2023-03-14T14:33:45;65.59;54.72;79.99;;
64545;Laerm;50936;51.660;5.616;2023-03-14T14:39:17;65.10;56.34;83.91;;
64545;Laerm;50936;51.660;5.616;2023-03-14T14:41:47;65.62;56.51;82.55;;
64545;Laerm;50936;51.660;5.616;2023-03-14T14:44:26;64.65;57.76;78.81;;
64545;Laerm;50936;51.660;5.616;2023-03-14T14:46:56;66.82;56.93;84.23;;
64545;Laerm;50936;51.660;5.616;2023-03-14T14:49:32;65.59;52.76;84.64;;
64545;Laerm;50936;51.660;5.616;2023-03-14T14:52:55;66.29;55.81;79.89;;
64545;Laerm;50936;51.660;5.616;2023-03-14T14:55:19;66.80;50.20;84.23;;
64545;Laerm;50936;51.660;5.616;2023-03-14T14:57:54;63.53;53.14;75.05;;
64545;Laerm;50936;51.660;5.616;2023-03-14T15:00:26;67.24;55.66;80.75;;
64545;Laerm;50936;51.660;5.616;2023-03-14T15:02:59;66.11;55.74;82.81;;
64545;Laerm;50936;51.660;5.616;2023-03-14T15:05:28;67.73;53.81;82.71;;
64545;Laerm;50936;51.660;5.616;2023-03-14T15:07:57;69.95;55.56;90.49;;
64545;Laerm;50936;51.660;5.616;2023-03-14T15:10:25;69.18;58.41;80.47;;
64545;Laerm;50936;51.660;5.616;2023-03-14T15:12:52;67.08;55.69;78.80;;
64545;Laerm;50936;51.660;5.616;2023-03-14T15:15:23;64.77;54.32;77.49;;
64545;Laerm;50936;51.660;5.616;2023-03-14T15:17:50;65.27;52.89;78.38;;
64545;Laerm;50936;51.660;5.616;2023-03-14T15:20:17;68.25;57.40;93.50;;
64545;Laerm;50936;51.660;5.616;2023-03-14T15:22:46;66.21;56.16;84.48;;
64545;Laerm;50936;51.660;5.616;2023-03-14T15:25:13;66.02;55.30;79.47;;
64545;Laerm;50936;51.660;5.616;2023-03-14T15:28:00;64.56;54.49;75.88;;
64545;Laerm;50936;51.660;5.616;2023-03-14T15:30:27;64.14;56.75;74.27;;
64545;Laerm;50936;51.660;5.616;2023-03-14T15:32:54;65.36;55.63;74.77;;
64545;Laerm;50936;51.660;5.616;2023-03-14T15:35:21;65.31;52.44;85.02;;
64545;Laerm;50936;51.660;5.616;2023-03-14T15:37:48;66.38;52.63;82.71;;